Terminal Aerodrome Forecast
Issued by NWS

Home | Current Version | Previous Version | Text Only | Print | Product List | Glossary On
Versions: 1 2 3 4 5 6 7 8 9 10 11 12 13
000
FTUS41 KBTV 012320
TAFPBG
TAF
KPBG 012320Z 0200/0224 13010KT 3SM -SHRA BR BKN020 OVC025
     FM020200 15006KT 3SM -DZ BR SCT008 OVC020
     FM021500 15004KT 3SM -SHRA BR OVC020
     FM022300 VRB03KT 3SM BR SCT008 OVC010=

USA.gov is the U.S. government's official web portal to all federal, state and local government web resources and services.